createdAt,value
2019-03-10T00:01:06.545Z,9.27
2019-03-10T00:03:38.630Z,9.34
2019-03-10T00:06:10.655Z,9.47
2019-03-10T00:08:43.150Z,9.48
2019-03-10T00:11:15.176Z,9.46
2019-03-10T00:13:47.723Z,9.43
2019-03-10T00:16:20.872Z,9.39
2019-03-10T00:18:52.495Z,9.40
2019-03-10T00:21:23.263Z,9.37
2019-03-10T00:23:55.614Z,9.18
2019-03-10T00:26:27.475Z,9.20
2019-03-10T00:29:00.464Z,9.17
2019-03-10T00:31:33.687Z,9.19
2019-03-10T00:34:06.726Z,9.22
2019-03-10T00:36:40.667Z,9.18
2019-03-10T00:39:36.149Z,9.10
2019-03-10T00:42:35.166Z,8.98
2019-03-10T00:45:27.364Z,8.72
2019-03-10T00:48:28.628Z,8.54
2019-03-10T00:51:30.825Z,8.81
2019-03-10T00:54:01.865Z,8.89
2019-03-10T00:56:33.671Z,8.94
2019-03-10T00:59:06.148Z,8.94
2019-03-10T01:01:37.510Z,8.97
2019-03-10T01:04:09.249Z,9.00
2019-03-10T01:06:41.412Z,9.01
2019-03-10T01:09:15.575Z,9.05
2019-03-10T01:11:46.812Z,8.98
2019-03-10T01:14:17.721Z,8.85
2019-03-10T01:16:50.645Z,8.77
2019-03-10T01:19:28.714Z,8.90
2019-03-10T01:22:02.706Z,9.00
2019-03-10T01:24:34.493Z,9.03
2019-03-10T01:27:07.282Z,8.99
2019-03-10T01:29:39.173Z,8.95
2019-03-10T01:32:28.684Z,8.98
2019-03-10T01:35:06.018Z,9.15
2019-03-10T01:37:39.596Z,9.12
2019-03-10T01:40:13.430Z,9.16
2019-03-10T01:42:45.781Z,9.13
2019-03-10T01:45:17.656Z,9.24
2019-03-10T01:47:51.037Z,9.26
2019-03-10T01:50:21.650Z,9.26
2019-03-10T01:52:53.027Z,9.19
2019-03-10T01:55:24.623Z,9.05
2019-03-10T01:57:56.856Z,9.18
2019-03-10T02:00:30.107Z,9.07
2019-03-10T02:03:02.710Z,9.17
2019-03-10T02:05:35.736Z,9.27
2019-03-10T02:08:06.591Z,9.16
2019-03-10T02:10:39.113Z,9.04
2019-03-10T02:13:14.454Z,8.91
2019-03-10T02:15:45.569Z,8.93
2019-03-10T02:18:19.228Z,8.98
2019-03-10T02:20:50.165Z,9.04
2019-03-10T02:23:23.632Z,8.97
2019-03-10T02:25:55.033Z,8.78
2019-03-10T02:28:35.052Z,8.81
2019-03-10T02:31:05.992Z,8.73
2019-03-10T02:33:38.853Z,8.88
2019-03-10T02:36:09.501Z,8.79
2019-03-10T02:38:43.107Z,8.72
2019-03-10T02:41:15.075Z,8.74
2019-03-10T02:43:49.280Z,8.83
2019-03-10T02:46:20.964Z,8.82
2019-03-10T02:48:52.101Z,8.89
2019-03-10T02:51:49.128Z,8.81
2019-03-10T02:54:28.151Z,8.74
2019-03-10T02:57:00.807Z,8.79
2019-03-10T02:59:33.058Z,8.83
2019-03-10T03:02:05.711Z,8.85
2019-03-10T03:04:45.163Z,8.85
2019-03-10T03:07:18.916Z,8.86
2019-03-10T03:09:50.915Z,8.90
2019-03-10T03:12:22.012Z,8.87
2019-03-10T03:14:54.668Z,8.88
2019-03-10T03:17:27.781Z,8.86
2019-03-10T03:20:00.980Z,8.78
2019-03-10T03:22:33.543Z,8.81
2019-03-10T03:25:06.372Z,8.94
2019-03-10T03:27:40.118Z,8.92
2019-03-10T03:30:13.539Z,8.87
2019-03-10T03:32:45.761Z,8.87
2019-03-10T03:35:46.243Z,8.85
2019-03-10T03:38:20.681Z,8.81
2019-03-10T03:41:04.628Z,8.83
2019-03-10T03:43:40.134Z,8.78
2019-03-10T03:46:11.623Z,8.83
2019-03-10T03:48:44.815Z,8.80
2019-03-10T03:51:18.827Z,8.79
2019-03-10T03:53:50.988Z,8.76
2019-03-10T03:56:24.218Z,8.73
2019-03-10T03:58:56.899Z,8.71
2019-03-10T04:01:31.353Z,8.77
2019-03-10T04:04:03.331Z,8.73
2019-03-10T04:06:37.347Z,8.75
2019-03-10T04:09:19.725Z,8.78
2019-03-10T04:11:51.757Z,8.74
2019-03-10T04:14:25.258Z,8.71
2019-03-10T04:16:56.996Z,8.73
2019-03-10T04:19:35.326Z,8.69
2019-03-10T04:22:09.182Z,8.72
2019-03-10T04:24:43.703Z,8.75
2019-03-10T04:27:18.037Z,8.74
2019-03-10T04:29:50.873Z,8.77
2019-03-10T04:32:25.434Z,8.73
2019-03-10T04:34:59.361Z,8.70
2019-03-10T04:37:35.097Z,8.81
2019-03-10T04:40:16.675Z,8.80
2019-03-10T04:42:54.586Z,8.87
2019-03-10T04:45:27.503Z,8.82
2019-03-10T04:47:59.723Z,8.79
2019-03-10T04:50:37.947Z,8.77
2019-03-10T04:53:09.941Z,8.81
2019-03-10T04:55:43.271Z,8.84
2019-03-10T04:58:21.818Z,8.83
2019-03-10T05:00:57.580Z,8.81
2019-03-10T05:03:29.136Z,8.77
2019-03-10T05:06:00.982Z,8.81
2019-03-10T05:08:33.321Z,8.82
2019-03-10T05:11:04.411Z,8.82
2019-03-10T05:13:37.751Z,8.75
2019-03-10T05:16:09.611Z,8.75
2019-03-10T05:18:43.743Z,8.71
2019-03-10T05:21:15.420Z,8.74
2019-03-10T05:23:48.624Z,8.69
2019-03-10T05:26:19.352Z,8.62
2019-03-10T05:28:50.336Z,8.61
2019-03-10T05:31:23.090Z,8.65
2019-03-10T05:33:54.015Z,8.61
2019-03-10T05:50:25.946Z,8.78
2019-03-10T05:52:56.725Z,8.77
2019-03-10T05:55:27.804Z,8.77
2019-03-10T05:57:58.520Z,8.80
2019-03-10T06:00:29.953Z,8.80
2019-03-10T06:03:01.270Z,8.83
2019-03-10T06:05:32.084Z,8.86
2019-03-10T06:08:03.217Z,8.90
2019-03-10T06:10:33.701Z,8.92
2019-03-10T06:13:06.103Z,8.93
2019-03-10T06:15:39.972Z,8.94
2019-03-10T06:18:13.996Z,8.89
2019-03-10T06:20:46.348Z,8.88
2019-03-10T06:23:17.833Z,8.91
2019-03-10T06:25:48.460Z,8.88
2019-03-10T06:28:19.313Z,8.93
2019-03-10T06:30:51.048Z,8.90
2019-03-10T06:33:22.339Z,8.92
2019-03-10T06:35:53.875Z,8.89
2019-03-10T06:38:25.642Z,8.85
2019-03-10T06:40:56.023Z,8.83
2019-03-10T06:43:27.193Z,8.81
2019-03-10T06:45:58.877Z,8.79
2019-03-10T06:48:30.064Z,8.71
2019-03-10T06:51:00.657Z,8.67
2019-03-10T06:53:31.410Z,8.77
2019-03-10T06:56:02.136Z,8.78
2019-03-10T06:58:32.676Z,8.88
2019-03-10T07:01:03.867Z,8.93
2019-03-10T07:03:38.830Z,9.01
2019-03-10T07:06:09.068Z,9.03
2019-03-10T07:08:41.278Z,9.08
2019-03-10T07:11:12.042Z,9.12
2019-03-10T07:13:43.191Z,9.25
2019-03-10T07:16:14.426Z,9.28
2019-03-10T07:18:44.985Z,9.30
2019-03-10T07:21:16.301Z,9.34
2019-03-10T07:23:46.931Z,9.50
2019-03-10T07:26:18.580Z,9.56
2019-03-10T07:29:00.382Z,9.50
2019-03-10T07:31:41.787Z,9.50
2019-03-10T07:34:30.006Z,9.56
2019-03-10T07:37:06.039Z,9.60
2019-03-10T07:39:41.321Z,9.70
2019-03-10T07:42:19.610Z,9.95
2019-03-10T07:45:00.604Z,10.01
2019-03-10T07:47:35.830Z,9.98
2019-03-10T07:50:23.220Z,9.82
2019-03-10T07:52:58.542Z,9.83
2019-03-10T07:55:47.454Z,9.77
2019-03-10T07:58:25.950Z,9.85
2019-03-10T08:00:57.532Z,9.87
2019-03-10T08:03:39.439Z,9.93
2019-03-10T08:06:14.019Z,9.88
2019-03-10T08:08:46.103Z,9.85
2019-03-10T08:11:21.212Z,9.95
2019-03-10T08:13:53.025Z,10.10
2019-03-10T08:16:27.689Z,10.12
2019-03-10T08:19:02.680Z,10.21
2019-03-10T08:21:49.872Z,10.36
2019-03-10T08:24:22.475Z,10.59
2019-03-10T08:26:56.669Z,10.63
2019-03-10T08:29:50.489Z,10.68
2019-03-10T08:32:30.193Z,10.87
2019-03-10T08:35:01.962Z,11.07
2019-03-10T08:37:34.000Z,11.19
2019-03-10T08:40:22.474Z,11.18
2019-03-10T08:42:56.385Z,11.09
2019-03-10T08:45:34.093Z,11.11
2019-03-10T08:48:09.956Z,11.32
2019-03-10T08:50:45.736Z,11.28
2019-03-10T08:53:22.409Z,11.08
2019-03-10T08:55:54.611Z,11.26
2019-03-10T08:58:26.853Z,11.24
2019-03-10T09:01:16.115Z,11.33
2019-03-10T09:03:50.834Z,11.27
2019-03-10T09:06:39.491Z,11.45
2019-03-10T09:09:30.053Z,11.47
2019-03-10T09:12:18.224Z,11.52
2019-03-10T09:14:59.844Z,11.72
2019-03-10T09:17:32.915Z,11.78
2019-03-10T09:20:07.473Z,11.67
2019-03-10T09:22:39.831Z,11.95
2019-03-10T09:25:21.935Z,12.14
2019-03-10T09:28:00.774Z,12.09
2019-03-10T09:30:38.795Z,12.02
2019-03-10T09:33:11.248Z,11.87
2019-03-10T09:35:58.303Z,11.76
2019-03-10T09:38:42.748Z,11.85
2019-03-10T09:41:20.968Z,12.09
2019-03-10T09:43:52.952Z,12.19
2019-03-10T09:46:27.412Z,12.42
2019-03-10T09:49:08.098Z,12.54
2019-03-10T09:51:39.922Z,12.79
2019-03-10T09:54:18.775Z,12.93
2019-03-10T09:56:56.064Z,12.88
2019-03-10T09:59:28.130Z,12.79
2019-03-10T10:02:01.407Z,12.82
2019-03-10T10:04:44.916Z,12.65
2019-03-10T10:07:18.487Z,12.84
2019-03-10T10:09:53.575Z,13.20
2019-03-10T10:12:43.143Z,13.57
2019-03-10T10:15:27.513Z,13.39
2019-03-10T10:17:59.458Z,13.42
2019-03-10T10:20:34.827Z,13.57
2019-03-10T10:23:11.511Z,13.14
2019-03-10T10:25:49.574Z,12.88
2019-03-10T10:28:21.515Z,12.71
2019-03-10T10:31:00.137Z,12.74
2019-03-10T10:33:32.463Z,12.77
2019-03-10T10:36:14.294Z,13.09
2019-03-10T10:38:52.953Z,13.08
2019-03-10T10:41:42.471Z,13.16
2019-03-10T10:44:32.020Z,13.22
2019-03-10T10:47:22.133Z,13.21
2019-03-10T10:49:56.639Z,12.99
2019-03-10T10:52:30.931Z,13.11
2019-03-10T10:55:09.604Z,13.20
2019-03-10T10:57:55.894Z,13.38
2019-03-10T11:00:40.129Z,13.70
2019-03-10T11:03:14.819Z,13.61
2019-03-10T11:05:56.375Z,13.44
2019-03-10T11:08:28.979Z,13.21
2019-03-10T11:11:10.796Z,13.20
2019-03-10T11:14:02.172Z,13.29
2019-03-10T11:16:41.459Z,13.29
2019-03-10T11:19:23.020Z,13.34
2019-03-10T11:22:07.991Z,13.48
2019-03-10T11:24:41.649Z,13.51
2019-03-10T11:27:32.094Z,13.48
2019-03-10T11:30:14.720Z,13.53
2019-03-10T11:33:09.586Z,13.32
2019-03-10T11:35:59.979Z,13.47
2019-03-10T11:38:54.481Z,13.43
2019-03-10T11:41:49.760Z,13.54
2019-03-10T11:44:35.912Z,13.39
2019-03-10T11:47:32.961Z,13.40
2019-03-10T11:50:23.995Z,13.36
2019-03-10T11:53:29.389Z,13.36
2019-03-10T11:56:17.535Z,13.26
2019-03-10T11:58:59.689Z,13.33
2019-03-10T12:01:50.595Z,13.31
2019-03-10T12:04:36.296Z,13.39
2019-03-10T12:07:22.327Z,13.62
2019-03-10T12:10:10.855Z,14.02
2019-03-10T12:12:51.792Z,13.97
2019-03-10T12:15:27.793Z,13.75
2019-03-10T12:18:18.734Z,13.66
2019-03-10T12:21:14.077Z,13.68
2019-03-10T12:23:58.937Z,13.61
2019-03-10T12:26:43.347Z,13.74
2019-03-10T12:29:18.783Z,13.45
2019-03-10T12:31:58.688Z,13.65
2019-03-10T12:34:45.998Z,13.56
2019-03-10T12:37:27.276Z,13.52
2019-03-10T12:40:16.847Z,13.44
2019-03-10T12:43:01.445Z,13.61
2019-03-10T12:45:44.793Z,13.52
2019-03-10T12:48:25.430Z,13.40
2019-03-10T12:51:07.625Z,13.42
2019-03-10T12:53:51.121Z,13.31
2019-03-10T12:56:31.708Z,13.28
2019-03-10T12:59:23.219Z,13.26
2019-03-10T13:02:05.016Z,13.20
2019-03-10T13:04:50.473Z,13.14
2019-03-10T13:07:36.997Z,13.20
2019-03-10T13:10:13.265Z,13.25
2019-03-10T13:12:46.921Z,13.31
2019-03-10T13:15:23.816Z,13.43
2019-03-10T13:17:56.866Z,13.66
2019-03-10T13:20:33.936Z,13.49
2019-03-10T13:23:05.794Z,13.40
2019-03-10T13:25:38.241Z,13.53
2019-03-10T13:28:12.255Z,13.54
2019-03-10T13:30:44.457Z,13.61
2019-03-10T13:33:20.675Z,13.62
2019-03-10T13:35:53.603Z,13.49
2019-03-10T13:38:25.443Z,13.28
2019-03-10T13:40:57.060Z,13.16
2019-03-10T13:43:28.070Z,13.12
2019-03-10T13:46:00.485Z,13.10
2019-03-10T13:48:35.477Z,13.10
2019-03-10T13:51:09.679Z,13.12
2019-03-10T13:53:41.718Z,13.17
2019-03-10T13:56:13.554Z,13.24
2019-03-10T13:58:45.790Z,13.34
2019-03-10T14:01:19.933Z,13.42
2019-03-10T14:03:54.301Z,13.58
2019-03-10T14:06:31.215Z,13.59
2019-03-10T14:09:06.002Z,13.65
2019-03-10T14:11:41.475Z,13.67
2019-03-10T14:14:15.861Z,13.70
2019-03-10T14:16:50.287Z,13.68
2019-03-10T14:19:24.891Z,13.71
2019-03-10T14:21:58.981Z,13.72
2019-03-10T14:24:33.270Z,13.72
2019-03-10T14:27:06.946Z,13.74
2019-03-10T14:29:41.854Z,13.68
2019-03-10T14:32:15.022Z,13.68
2019-03-10T14:34:49.045Z,13.63
2019-03-10T14:37:22.096Z,13.59
2019-03-10T14:39:55.206Z,13.52
2019-03-10T14:42:29.786Z,13.45
2019-03-10T14:45:04.122Z,13.40
2019-03-10T14:47:36.967Z,13.42
2019-03-10T14:50:12.585Z,13.41
2019-03-10T14:52:44.673Z,13.37
2019-03-10T14:55:19.687Z,13.35
2019-03-10T14:57:52.490Z,13.33
2019-03-10T15:00:30.098Z,13.31
2019-03-10T15:03:02.343Z,13.29
2019-03-10T15:05:36.442Z,13.30
2019-03-10T15:08:09.600Z,13.28
2019-03-10T15:10:42.184Z,13.25
2019-03-10T15:13:15.099Z,13.23
2019-03-10T15:15:48.293Z,13.18
2019-03-10T15:18:23.033Z,13.15
2019-03-10T15:20:54.408Z,13.15
2019-03-10T15:23:28.708Z,13.15
2019-03-10T15:26:02.275Z,13.13
2019-03-10T15:28:35.393Z,13.13
2019-03-10T15:31:06.398Z,13.12
2019-03-10T15:33:39.631Z,13.16
2019-03-10T15:36:20.281Z,13.19
2019-03-10T15:38:49.428Z,13.17
2019-03-10T15:41:20.624Z,13.16
2019-03-10T15:43:53.141Z,13.15
2019-03-10T15:46:25.506Z,13.10
2019-03-10T15:48:58.668Z,13.14
2019-03-10T15:51:31.063Z,13.16
2019-03-10T15:54:05.873Z,13.16
2019-03-10T15:56:43.351Z,13.14
2019-03-10T15:59:15.070Z,13.12
2019-03-10T16:01:47.610Z,13.06
2019-03-10T16:04:24.288Z,13.06
2019-03-10T16:07:01.885Z,13.01
2019-03-10T16:09:37.110Z,13.00
2019-03-10T16:12:11.075Z,13.01
2019-03-10T16:14:45.339Z,12.99
2019-03-10T16:17:17.570Z,12.99
2019-03-10T16:19:51.804Z,12.96
2019-03-10T16:22:26.743Z,12.99
2019-03-10T16:25:02.042Z,12.99
2019-03-10T16:27:35.164Z,13.01
2019-03-10T16:30:19.028Z,12.98
2019-03-10T16:32:55.388Z,12.97
2019-03-10T16:35:27.399Z,12.93
2019-03-10T16:38:01.867Z,12.90
2019-03-10T16:40:33.217Z,12.78
2019-03-10T16:43:05.918Z,12.74
2019-03-10T16:45:52.933Z,12.66
2019-03-10T16:48:25.632Z,12.61
2019-03-10T16:50:57.494Z,12.51
2019-03-10T16:53:31.808Z,12.49
2019-03-10T16:56:03.983Z,12.44
2019-03-10T16:58:35.899Z,12.39
2019-03-10T17:01:08.998Z,12.32
2019-03-10T17:03:41.390Z,12.33
2019-03-10T17:06:15.127Z,12.27
2019-03-10T17:08:47.558Z,12.25
2019-03-10T17:11:19.573Z,12.24
2019-03-10T17:13:52.467Z,12.17
2019-03-10T17:16:25.032Z,12.13
2019-03-10T17:18:57.691Z,12.02
2019-03-10T17:21:31.670Z,12.00
2019-03-10T17:24:05.299Z,11.93
2019-03-10T17:26:37.534Z,11.95
2019-03-10T17:29:11.347Z,11.96
2019-03-10T17:31:45.021Z,11.95
2019-03-10T17:34:18.450Z,11.94
2019-03-10T17:36:52.576Z,11.91
2019-03-10T17:39:29.212Z,11.89
2019-03-10T17:44:58.603Z,11.77
2019-03-10T17:47:33.051Z,11.73
2019-03-10T17:50:09.349Z,11.69
2019-03-10T17:52:40.635Z,11.69
2019-03-10T17:55:19.005Z,11.72
2019-03-10T17:57:50.707Z,11.68
2019-03-10T18:00:23.608Z,11.62
2019-03-10T18:02:57.734Z,11.62
2019-03-10T18:05:33.199Z,11.54
2019-03-10T18:08:11.925Z,11.45
2019-03-10T18:10:44.699Z,11.39
2019-03-10T18:13:18.148Z,11.23
2019-03-10T18:15:50.284Z,11.21
2019-03-10T18:18:23.506Z,11.15
2019-03-10T18:20:57.196Z,11.04
2019-03-10T18:23:29.802Z,11.03
2019-03-10T18:26:02.807Z,11.01
2019-03-10T18:28:36.438Z,10.98
2019-03-10T18:31:08.767Z,10.96
2019-03-10T18:33:39.637Z,10.96
2019-03-10T18:36:13.425Z,10.94
2019-03-10T18:38:46.363Z,10.93
2019-03-10T18:41:20.052Z,10.95
2019-03-10T18:43:52.006Z,10.95
2019-03-10T18:46:23.165Z,10.93
2019-03-10T18:48:54.560Z,10.92
2019-03-10T18:51:31.441Z,10.92
2019-03-10T18:54:03.698Z,10.88
2019-03-10T18:56:37.117Z,10.93
2019-03-10T18:59:11.882Z,10.93
2019-03-10T19:01:43.495Z,10.93
2019-03-10T19:04:18.405Z,10.94
2019-03-10T19:06:50.627Z,10.94
2019-03-10T19:09:22.717Z,10.90
2019-03-10T19:12:00.821Z,10.94
2019-03-10T19:14:39.712Z,10.95
2019-03-10T19:17:12.211Z,10.93
2019-03-10T19:19:54.729Z,10.93
2019-03-10T19:22:35.728Z,10.96
2019-03-10T19:25:20.595Z,10.94
2019-03-10T19:28:21.149Z,10.96
2019-03-10T19:31:19.074Z,10.92
2019-03-10T19:34:21.776Z,10.97
2019-03-10T19:37:00.568Z,10.97
2019-03-10T19:39:36.356Z,10.95
2019-03-10T19:42:11.805Z,10.97
2019-03-10T19:45:05.098Z,10.97
2019-03-10T19:47:39.164Z,10.96
2019-03-10T19:50:17.400Z,10.99
2019-03-10T19:52:49.950Z,10.98
2019-03-10T19:55:30.218Z,11.02
2019-03-10T19:58:18.665Z,11.02
2019-03-10T20:01:00.541Z,11.07
2019-03-10T20:03:33.547Z,11.06
2019-03-10T20:06:05.103Z,11.10
2019-03-10T20:08:38.142Z,11.10
2019-03-10T20:11:08.656Z,11.07
2019-03-10T20:13:39.639Z,11.13
2019-03-10T20:16:10.514Z,11.13
2019-03-10T20:18:43.291Z,11.11
2019-03-10T20:21:19.451Z,11.13
2019-03-10T20:23:56.593Z,11.13
2019-03-10T20:26:33.246Z,11.12
2019-03-10T20:29:06.613Z,11.11
2019-03-10T20:31:41.695Z,11.11
2019-03-10T20:34:13.400Z,11.10
2019-03-10T20:36:45.594Z,11.09
2019-03-10T20:39:19.309Z,11.09
2019-03-10T20:42:04.518Z,11.10
2019-03-10T20:44:26.059Z,11.11
2019-03-10T20:47:00.327Z,11.13
2019-03-10T20:49:35.466Z,11.12
2019-03-10T20:52:10.486Z,11.14
2019-03-10T20:54:44.815Z,11.12
2019-03-10T20:57:17.253Z,11.10
2019-03-10T21:00:00.192Z,11.13
2019-03-10T21:02:25.789Z,11.10
2019-03-10T21:04:57.270Z,11.15
2019-03-10T21:07:32.988Z,11.14
2019-03-10T21:10:09.136Z,11.12
2019-03-10T21:12:42.724Z,11.09
2019-03-10T21:15:19.227Z,11.09
2019-03-10T21:17:52.231Z,11.04
2019-03-10T21:20:24.645Z,11.03
2019-03-10T21:22:57.616Z,11.07
2019-03-10T21:25:33.319Z,11.04
2019-03-10T21:28:11.632Z,11.05
2019-03-10T21:30:44.601Z,11.05
2019-03-10T21:33:17.544Z,11.06
2019-03-10T21:35:50.651Z,11.04
2019-03-10T21:38:26.790Z,10.97
2019-03-10T21:40:59.559Z,10.97
2019-03-10T21:43:34.777Z,10.99
2019-03-10T21:46:07.598Z,11.02
2019-03-10T21:48:39.852Z,11.02
2019-03-10T21:51:11.624Z,11.05
2019-03-10T21:53:44.330Z,11.04
2019-03-10T21:56:16.630Z,11.04
2019-03-10T21:58:48.101Z,11.04
2019-03-10T22:01:21.254Z,11.00
2019-03-10T22:03:55.517Z,11.05
2019-03-10T22:06:28.121Z,10.99
2019-03-10T22:09:01.582Z,10.98
2019-03-10T22:11:35.628Z,10.94
2019-03-10T22:14:14.444Z,10.93
2019-03-10T22:16:50.155Z,10.94
2019-03-10T22:19:25.396Z,10.94
2019-03-10T22:22:05.706Z,10.97
2019-03-10T22:24:41.371Z,10.97
2019-03-10T22:27:13.539Z,10.96
2019-03-10T22:29:45.535Z,10.97
2019-03-10T22:32:18.707Z,10.99
2019-03-10T22:34:51.781Z,10.99
2019-03-10T22:37:27.742Z,10.98
2019-03-10T22:40:01.177Z,10.97
2019-03-10T22:42:43.634Z,11.00
2019-03-10T22:45:17.107Z,11.00
2019-03-10T22:47:50.898Z,10.98
2019-03-10T22:50:26.385Z,10.97
2019-03-10T22:53:06.256Z,10.99
2019-03-10T22:55:37.366Z,10.93
2019-03-10T22:58:17.389Z,10.93
2019-03-10T23:00:52.524Z,10.93
2019-03-10T23:03:24.568Z,10.93
2019-03-10T23:06:07.490Z,10.89
2019-03-10T23:08:41.843Z,10.90
2019-03-10T23:11:14.277Z,10.90
2019-03-10T23:13:45.431Z,10.89
2019-03-10T23:16:16.901Z,10.85
2019-03-10T23:18:50.261Z,10.89
2019-03-10T23:21:25.001Z,10.88
2019-03-10T23:23:57.781Z,10.88
2019-03-10T23:26:31.022Z,10.90
2019-03-10T23:29:06.114Z,10.86
2019-03-10T23:31:39.679Z,10.89
2019-03-10T23:34:12.876Z,10.86
2019-03-10T23:36:47.879Z,10.87
2019-03-10T23:39:18.713Z,10.87
2019-03-10T23:41:50.802Z,10.90
2019-03-10T23:44:23.414Z,10.89
2019-03-10T23:46:55.792Z,10.88
2019-03-10T23:49:29.124Z,10.89
2019-03-10T23:52:04.420Z,10.92
2019-03-10T23:54:36.720Z,10.89
2019-03-10T23:57:08.945Z,10.91
2019-03-10T23:59:40.189Z,10.93
